Port Austin, Michigan
Current Conditions -  °F | °C
As of 5:54 PM on Tuesday 27 Jan 2015 (Local Time) from KBAX Reporting Station
Clear Clear  
Wind Chill:   Ceiling: Unl
Heat Index: 18°   Visibility: 10mi
Dew Point: 11°   Wind: 7mph
Humidity: 75%   Direction: 10°N
Pressure: 30.2"   Gusts: NA
Location:  44.05°N, 82.99°W
Report Text: KBAX 272254Z AUTO 01006KT 10SM CLR M08/M11 A3020 RMK AO2 T10761114
Loading
Personal Weather Stations






























Interactive Weather Map New forecast layout! Learn more

10-Day Weather Forecast

Advertisements
Track Severe Weather on mobile